METAR Data

Data at: 0517 UTC 28 Sep 2022

METAR for:KPYM (Plymouth Muni, MA, US)
Text:KPYM 280452Z AUTO 21005KT 10SM CLR 13/09 A2993 RMK AO2 SLP138 T01330094 402390122
Temperature: 13.3°C ( 56°F)
Dewpoint: 9.4°C ( 49°F) [RH = 77%]
Pressure (altimeter):29.93 inches Hg (1013.6 mb) [Sea level pressure: 1013.8 mb]
Winds:from the SSW (210 degrees) at 6 MPH (5 knots; 2.6 m/s)
Visibility:10 or more sm (16+ km)
Ceiling:at least 12,000 feet AGL
Clouds:sky clear below 12,000 feet AGL
QC Flag:automated observation with no human augmentation